sensor_id;sensor_type;location;lat;lon;timestamp;pressure;altitude;pressure_sealevel;temperature
75211;BMP280;63796;53.136;14.882;2022-12-31T00:01:53;100416.80;;;8.70
75211;BMP280;63796;53.136;14.882;2022-12-31T00:04:20;100415.19;;;8.71
75211;BMP280;63796;53.136;14.882;2022-12-31T00:06:47;100420.00;;;8.72
75211;BMP280;63796;53.136;14.882;2022-12-31T00:09:14;100444.19;;;8.72
75211;BMP280;63796;53.136;14.882;2022-12-31T00:11:40;100425.48;;;8.73
75211;BMP280;63796;53.136;14.882;2022-12-31T00:14:07;100424.64;;;8.74
75211;BMP280;63796;53.136;14.882;2022-12-31T00:16:39;100426.20;;;8.77
75211;BMP280;63796;53.136;14.882;2022-12-31T00:19:09;100424.95;;;8.83
75211;BMP280;63796;53.136;14.882;2022-12-31T00:21:37;100428.52;;;8.91
75211;BMP280;63796;53.136;14.882;2022-12-31T00:24:05;100411.52;;;8.94
75211;BMP280;63796;53.136;14.882;2022-12-31T00:26:33;100426.97;;;8.95
75211;BMP280;63796;53.136;14.882;2022-12-31T00:29:01;100416.46;;;8.98
75211;BMP280;63796;53.136;14.882;2022-12-31T00:31:35;100415.40;;;9.03
75211;BMP280;63796;53.136;14.882;2022-12-31T00:34:03;100422.08;;;9.08
75211;BMP280;63796;53.136;14.882;2022-12-31T00:36:34;100431.19;;;9.13
75211;BMP280;63796;53.136;14.882;2022-12-31T00:39:03;100439.74;;;9.20
75211;BMP280;63796;53.136;14.882;2022-12-31T00:41:31;100455.62;;;9.25
75211;BMP280;63796;53.136;14.882;2022-12-31T00:43:58;100432.67;;;9.27
75211;BMP280;63796;53.136;14.882;2022-12-31T00:46:25;100450.37;;;9.29
75211;BMP280;63796;53.136;14.882;2022-12-31T00:48:53;100455.18;;;9.31
75211;BMP280;63796;53.136;14.882;2022-12-31T00:51:23;100451.08;;;9.35
75211;BMP280;63796;53.136;14.882;2022-12-31T00:53:53;100459.70;;;9.39
75211;BMP280;63796;53.136;14.882;2022-12-31T00:56:23;100461.22;;;9.44
75211;BMP280;63796;53.136;14.882;2022-12-31T00:58:50;100457.44;;;9.48
75211;BMP280;63796;53.136;14.882;2022-12-31T01:01:24;100440.58;;;9.51
75211;BMP280;63796;53.136;14.882;2022-12-31T01:03:57;100436.80;;;9.54
75211;BMP280;63796;53.136;14.882;2022-12-31T01:06:23;100446.20;;;9.60
75211;BMP280;63796;53.136;14.882;2022-12-31T01:08:52;100441.77;;;9.63
75211;BMP280;63796;53.136;14.882;2022-12-31T01:11:19;100440.89;;;9.66
75211;BMP280;63796;53.136;14.882;2022-12-31T01:13:55;100440.34;;;9.70
75211;BMP280;63796;53.136;14.882;2022-12-31T01:16:48;100429.61;;;9.73
75211;BMP280;63796;53.136;14.882;2022-12-31T01:18:57;100425.80;;;9.77
75211;BMP280;63796;53.136;14.882;2022-12-31T01:21:24;100439.03;;;9.77
75211;BMP280;63796;53.136;14.882;2022-12-31T01:23:51;100452.86;;;9.81
75211;BMP280;63796;53.136;14.882;2022-12-31T01:26:18;100447.42;;;9.86
75211;BMP280;63796;53.136;14.882;2022-12-31T01:28:46;100462.70;;;9.89
75211;BMP280;63796;53.136;14.882;2022-12-31T01:31:16;100464.56;;;9.91
75211;BMP280;63796;53.136;14.882;2022-12-31T01:33:43;100463.36;;;9.95
75211;BMP280;63796;53.136;14.882;2022-12-31T01:36:15;100462.64;;;9.98
75211;BMP280;63796;53.136;14.882;2022-12-31T01:38:42;100483.61;;;10.00
75211;BMP280;63796;53.136;14.882;2022-12-31T01:41:16;100497.77;;;10.03
75211;BMP280;63796;53.136;14.882;2022-12-31T01:43:56;100484.44;;;10.06
75211;BMP280;63796;53.136;14.882;2022-12-31T01:46:34;100480.23;;;10.08
75211;BMP280;63796;53.136;14.882;2022-12-31T01:49:23;100480.03;;;10.10
75211;BMP280;63796;53.136;14.882;2022-12-31T01:51:59;100488.02;;;10.13
75211;BMP280;63796;53.136;14.882;2022-12-31T01:54:26;100470.20;;;10.15
75211;BMP280;63796;53.136;14.882;2022-12-31T01:56:55;100486.19;;;10.16
75211;BMP280;63796;53.136;14.882;2022-12-31T01:59:25;100492.70;;;10.14
75211;BMP280;63796;53.136;14.882;2022-12-31T02:01:54;100487.95;;;10.10
75211;BMP280;63796;53.136;14.882;2022-12-31T02:04:23;100487.03;;;10.06
75211;BMP280;63796;53.136;14.882;2022-12-31T02:06:59;100484.10;;;10.00
75211;BMP280;63796;53.136;14.882;2022-12-31T02:09:25;100515.03;;;9.97
75211;BMP280;63796;53.136;14.882;2022-12-31T02:11:52;100517.45;;;9.97
75211;BMP280;63796;53.136;14.882;2022-12-31T02:14:41;100500.81;;;9.97
75211;BMP280;63796;53.136;14.882;2022-12-31T02:17:32;100515.68;;;9.96
75211;BMP280;63796;53.136;14.882;2022-12-31T02:23:35;100506.72;;;9.99
75211;BMP280;63796;53.136;14.882;2022-12-31T02:34:59;100502.86;;;9.84
75211;BMP280;63796;53.136;14.882;2022-12-31T02:37:26;100504.55;;;9.80
75211;BMP280;63796;53.136;14.882;2022-12-31T02:39:54;100498.48;;;9.78
75211;BMP280;63796;53.136;14.882;2022-12-31T02:42:21;100488.20;;;9.75
75211;BMP280;63796;53.136;14.882;2022-12-31T02:44:48;100495.63;;;9.75
75211;BMP280;63796;53.136;14.882;2022-12-31T02:55:49;100499.61;;;9.62
75211;BMP280;63796;53.136;14.882;2022-12-31T03:01:35;100497.42;;;9.67
75211;BMP280;63796;53.136;14.882;2022-12-31T03:04:23;100491.83;;;9.71
75211;BMP280;63796;53.136;14.882;2022-12-31T03:09:34;100499.22;;;9.81
75211;BMP280;63796;53.136;14.882;2022-12-31T03:12:04;100503.64;;;9.86
75211;BMP280;63796;53.136;14.882;2022-12-31T03:14:50;100496.11;;;9.90
75211;BMP280;63796;53.136;14.882;2022-12-31T03:17:16;100511.83;;;9.95
75211;BMP280;63796;53.136;14.882;2022-12-31T03:19:43;100502.81;;;10.01
75211;BMP280;63796;53.136;14.882;2022-12-31T03:22:29;100502.55;;;10.05
75211;BMP280;63796;53.136;14.882;2022-12-31T03:25:04;100495.23;;;10.09
75211;BMP280;63796;53.136;14.882;2022-12-31T03:27:50;100495.16;;;10.12
75211;BMP280;63796;53.136;14.882;2022-12-31T03:30:19;100489.62;;;10.14
75211;BMP280;63796;53.136;14.882;2022-12-31T03:32:47;100491.45;;;10.18
75211;BMP280;63796;53.136;14.882;2022-12-31T03:35:18;100486.17;;;10.23
75211;BMP280;63796;53.136;14.882;2022-12-31T03:37:47;100489.86;;;10.25
75211;BMP280;63796;53.136;14.882;2022-12-31T03:40:19;100487.72;;;10.27
75211;BMP280;63796;53.136;14.882;2022-12-31T03:42:46;100482.63;;;10.29
75211;BMP280;63796;53.136;14.882;2022-12-31T03:45:14;100479.61;;;10.34
75211;BMP280;63796;53.136;14.882;2022-12-31T03:47:41;100484.39;;;10.37
75211;BMP280;63796;53.136;14.882;2022-12-31T03:50:10;100488.55;;;10.40
75211;BMP280;63796;53.136;14.882;2022-12-31T03:52:37;100494.58;;;10.44
75211;BMP280;63796;53.136;14.882;2022-12-31T03:55:06;100491.59;;;10.47
75211;BMP280;63796;53.136;14.882;2022-12-31T03:57:33;100476.63;;;10.51
75211;BMP280;63796;53.136;14.882;2022-12-31T04:00:00;100492.53;;;10.55
75211;BMP280;63796;53.136;14.882;2022-12-31T04:02:26;100478.06;;;10.59
75211;BMP280;63796;53.136;14.882;2022-12-31T04:04:53;100474.91;;;10.62
75211;BMP280;63796;53.136;14.882;2022-12-31T04:07:20;100476.29;;;10.64
75211;BMP280;63796;53.136;14.882;2022-12-31T04:09:47;100488.37;;;10.67
75211;BMP280;63796;53.136;14.882;2022-12-31T04:12:14;100492.91;;;10.72
75211;BMP280;63796;53.136;14.882;2022-12-31T04:14:40;100471.84;;;10.75
75211;BMP280;63796;53.136;14.882;2022-12-31T04:17:07;100486.41;;;10.80
75211;BMP280;63796;53.136;14.882;2022-12-31T04:19:34;100497.80;;;10.85
75211;BMP280;63796;53.136;14.882;2022-12-31T04:22:01;100494.00;;;10.87
75211;BMP280;63796;53.136;14.882;2022-12-31T04:24:27;100493.44;;;10.90
75211;BMP280;63796;53.136;14.882;2022-12-31T04:26:54;100489.67;;;10.92
75211;BMP280;63796;53.136;14.882;2022-12-31T04:29:21;100480.05;;;10.95
75211;BMP280;63796;53.136;14.882;2022-12-31T04:31:48;100486.62;;;10.97
75211;BMP280;63796;53.136;14.882;2022-12-31T04:34:14;100489.05;;;11.03
75211;BMP280;63796;53.136;14.882;2022-12-31T04:36:42;100486.62;;;11.03
75211;BMP280;63796;53.136;14.882;2022-12-31T04:39:09;100481.73;;;11.05
75211;BMP280;63796;53.136;14.882;2022-12-31T04:41:35;100491.16;;;11.03
75211;BMP280;63796;53.136;14.882;2022-12-31T04:44:02;100487.80;;;11.02
75211;BMP280;63796;53.136;14.882;2022-12-31T04:46:32;100489.74;;;11.02
75211;BMP280;63796;53.136;14.882;2022-12-31T04:48:59;100491.13;;;11.04
75211;BMP280;63796;53.136;14.882;2022-12-31T04:51:28;100499.41;;;11.09
75211;BMP280;63796;53.136;14.882;2022-12-31T04:53:54;100507.25;;;11.13
75211;BMP280;63796;53.136;14.882;2022-12-31T04:56:21;100490.05;;;11.14
75211;BMP280;63796;53.136;14.882;2022-12-31T04:58:48;100500.86;;;11.15
75211;BMP280;63796;53.136;14.882;2022-12-31T05:01:15;100497.86;;;11.19
75211;BMP280;63796;53.136;14.882;2022-12-31T05:03:42;100497.00;;;11.21
75211;BMP280;63796;53.136;14.882;2022-12-31T05:06:16;100504.69;;;11.24
75211;BMP280;63796;53.136;14.882;2022-12-31T05:08:43;100500.55;;;11.27
75211;BMP280;63796;53.136;14.882;2022-12-31T05:11:10;100497.44;;;11.28
75211;BMP280;63796;53.136;14.882;2022-12-31T05:13:37;100501.28;;;11.30
75211;BMP280;63796;53.136;14.882;2022-12-31T05:16:06;100493.78;;;11.32
75211;BMP280;63796;53.136;14.882;2022-12-31T05:18:33;100485.93;;;11.34
75211;BMP280;63796;53.136;14.882;2022-12-31T05:21:00;100487.14;;;11.38
75211;BMP280;63796;53.136;14.882;2022-12-31T05:23:27;100499.68;;;11.41
75211;BMP280;63796;53.136;14.882;2022-12-31T05:25:54;100509.35;;;11.42
75211;BMP280;63796;53.136;14.882;2022-12-31T05:28:21;100492.58;;;11.45
75211;BMP280;63796;53.136;14.882;2022-12-31T05:30:50;100498.24;;;11.46
75211;BMP280;63796;53.136;14.882;2022-12-31T05:33:17;100489.84;;;11.51
75211;BMP280;63796;53.136;14.882;2022-12-31T05:35:44;100495.31;;;11.52
75211;BMP280;63796;53.136;14.882;2022-12-31T05:38:11;100495.50;;;11.57
75211;BMP280;63796;53.136;14.882;2022-12-31T05:40:38;100484.61;;;11.58
75211;BMP280;63796;53.136;14.882;2022-12-31T05:43:08;100504.31;;;11.60
75211;BMP280;63796;53.136;14.882;2022-12-31T05:45:34;100490.06;;;11.61
75211;BMP280;63796;53.136;14.882;2022-12-31T05:48:01;100488.12;;;11.61
75211;BMP280;63796;53.136;14.882;2022-12-31T05:50:28;100497.36;;;11.60
75211;BMP280;63796;53.136;14.882;2022-12-31T05:52:55;100482.30;;;11.60
75211;BMP280;63796;53.136;14.882;2022-12-31T05:55:22;100482.02;;;11.58
75211;BMP280;63796;53.136;14.882;2022-12-31T05:57:48;100468.66;;;11.56
75211;BMP280;63796;53.136;14.882;2022-12-31T06:00:16;100482.43;;;11.55
75211;BMP280;63796;53.136;14.882;2022-12-31T06:02:42;100476.77;;;11.55
75211;BMP280;63796;53.136;14.882;2022-12-31T06:05:09;100473.98;;;11.51
75211;BMP280;63796;53.136;14.882;2022-12-31T06:07:36;100478.48;;;11.46
75211;BMP280;63796;53.136;14.882;2022-12-31T06:10:03;100476.12;;;11.37
75211;BMP280;63796;53.136;14.882;2022-12-31T06:12:30;100486.11;;;11.28
75211;BMP280;63796;53.136;14.882;2022-12-31T06:14:57;100483.94;;;11.18
75211;BMP280;63796;53.136;14.882;2022-12-31T06:17:24;100473.14;;;11.12
75211;BMP280;63796;53.136;14.882;2022-12-31T06:19:51;100479.55;;;11.08
75211;BMP280;63796;53.136;14.882;2022-12-31T06:22:18;100479.42;;;11.06
75211;BMP280;63796;53.136;14.882;2022-12-31T06:24:44;100488.56;;;11.04
75211;BMP280;63796;53.136;14.882;2022-12-31T06:27:12;100500.23;;;11.03
75211;BMP280;63796;53.136;14.882;2022-12-31T06:29:41;100500.51;;;11.04
75211;BMP280;63796;53.136;14.882;2022-12-31T06:32:08;100494.60;;;11.02
75211;BMP280;63796;53.136;14.882;2022-12-31T06:34:35;100493.91;;;11.03
75211;BMP280;63796;53.136;14.882;2022-12-31T06:37:01;100496.21;;;11.02
75211;BMP280;63796;53.136;14.882;2022-12-31T06:39:28;100492.34;;;11.01
75211;BMP280;63796;53.136;14.882;2022-12-31T06:41:55;100487.92;;;11.03
75211;BMP280;63796;53.136;14.882;2022-12-31T06:44:22;100492.49;;;11.01
75211;BMP280;63796;53.136;14.882;2022-12-31T06:46:49;100489.79;;;10.99
75211;BMP280;63796;53.136;14.882;2022-12-31T06:49:16;100487.28;;;10.97
75211;BMP280;63796;53.136;14.882;2022-12-31T06:51:43;100492.98;;;10.95
75211;BMP280;63796;53.136;14.882;2022-12-31T06:54:11;100482.67;;;10.93
75211;BMP280;63796;53.136;14.882;2022-12-31T06:56:40;100484.02;;;10.91
75211;BMP280;63796;53.136;14.882;2022-12-31T06:59:16;100471.14;;;10.89
75211;BMP280;63796;53.136;14.882;2022-12-31T07:08:07;100475.31;;;10.90
75211;BMP280;63796;53.136;14.882;2022-12-31T07:13:39;100463.22;;;10.95
75211;BMP280;63796;53.136;14.882;2022-12-31T07:21:37;100465.67;;;10.99
75211;BMP280;63796;53.136;14.882;2022-12-31T07:24:10;100487.97;;;11.01
75211;BMP280;63796;53.136;14.882;2022-12-31T07:47:24;100470.07;;;11.10
75211;BMP280;63796;53.136;14.882;2022-12-31T07:49:53;100469.42;;;11.10
75211;BMP280;63796;53.136;14.882;2022-12-31T07:52:21;100474.40;;;11.12
75211;BMP280;63796;53.136;14.882;2022-12-31T07:54:48;100478.72;;;11.14
75211;BMP280;63796;53.136;14.882;2022-12-31T07:57:17;100472.38;;;11.15
75211;BMP280;63796;53.136;14.882;2022-12-31T08:00:07;100469.94;;;11.15
75211;BMP280;63796;53.136;14.882;2022-12-31T08:09:01;100444.63;;;11.24
75211;BMP280;63796;53.136;14.882;2022-12-31T08:14:17;100436.53;;;11.35
75211;BMP280;63796;53.136;14.882;2022-12-31T08:16:45;100444.34;;;11.40
75211;BMP280;63796;53.136;14.882;2022-12-31T08:19:26;100433.72;;;11.43
75211;BMP280;63796;53.136;14.882;2022-12-31T08:25:51;100450.02;;;11.50
75211;BMP280;63796;53.136;14.882;2022-12-31T08:28:55;100445.95;;;11.51
75211;BMP280;63796;53.136;14.882;2022-12-31T08:31:35;100448.14;;;11.53
75211;BMP280;63796;53.136;14.882;2022-12-31T08:34:34;100444.27;;;11.59
75211;BMP280;63796;53.136;14.882;2022-12-31T08:40:16;100449.92;;;11.71
75211;BMP280;63796;53.136;14.882;2022-12-31T08:45:50;100458.16;;;11.78
75211;BMP280;63796;53.136;14.882;2022-12-31T08:48:32;100459.62;;;11.82
75211;BMP280;63796;53.136;14.882;2022-12-31T08:50:58;100448.03;;;11.85
75211;BMP280;63796;53.136;14.882;2022-12-31T08:53:26;100443.16;;;11.86
75211;BMP280;63796;53.136;14.882;2022-12-31T08:56:00;100434.92;;;11.90
75211;BMP280;63796;53.136;14.882;2022-12-31T09:01:13;100430.34;;;11.98
75211;BMP280;63796;53.136;14.882;2022-12-31T09:04:19;100447.00;;;11.98
75211;BMP280;63796;53.136;14.882;2022-12-31T09:06:37;100447.76;;;12.00
75211;BMP280;63796;53.136;14.882;2022-12-31T09:13:00;100460.89;;;12.05
75211;BMP280;63796;53.136;14.882;2022-12-31T09:15:12;100448.69;;;12.07
75211;BMP280;63796;53.136;14.882;2022-12-31T09:17:45;100440.10;;;12.12
75211;BMP280;63796;53.136;14.882;2022-12-31T09:20:29;100438.66;;;12.16
75211;BMP280;63796;53.136;14.882;2022-12-31T09:22:57;100448.78;;;12.19
75211;BMP280;63796;53.136;14.882;2022-12-31T09:25:25;100452.24;;;12.28
75211;BMP280;63796;53.136;14.882;2022-12-31T09:36:06;100455.69;;;12.51
75211;BMP280;63796;53.136;14.882;2022-12-31T09:38:55;100450.76;;;12.53
75211;BMP280;63796;53.136;14.882;2022-12-31T09:47:59;100451.48;;;12.79
75211;BMP280;63796;53.136;14.882;2022-12-31T10:01:44;100438.98;;;13.03
75211;BMP280;63796;53.136;14.882;2022-12-31T10:10:45;100421.20;;;13.54
75211;BMP280;63796;53.136;14.882;2022-12-31T10:16:32;100422.00;;;13.55
75211;BMP280;63796;53.136;14.882;2022-12-31T10:19:43;100424.72;;;13.56
75211;BMP280;63796;53.136;14.882;2022-12-31T10:22:41;100418.44;;;13.71
75211;BMP280;63796;53.136;14.882;2022-12-31T10:25:43;100414.45;;;14.07
75211;BMP280;63796;53.136;14.882;2022-12-31T10:34:30;100421.93;;;14.51
75211;BMP280;63796;53.136;14.882;2022-12-31T10:37:12;100418.50;;;14.51
75211;BMP280;63796;53.136;14.882;2022-12-31T10:57:55;100422.31;;;14.99
75211;BMP280;63796;53.136;14.882;2022-12-31T11:00:22;100418.26;;;15.28
75211;BMP280;63796;53.136;14.882;2022-12-31T11:06:14;100412.61;;;15.42
75211;BMP280;63796;53.136;14.882;2022-12-31T11:09:06;100408.35;;;15.35
75211;BMP280;63796;53.136;14.882;2022-12-31T11:12:06;100406.52;;;15.47
75211;BMP280;63796;53.136;14.882;2022-12-31T11:18:02;100404.09;;;15.53
75211;BMP280;63796;53.136;14.882;2022-12-31T11:20:48;100397.47;;;15.45
75211;BMP280;63796;53.136;14.882;2022-12-31T11:27:20;100401.57;;;15.41
75211;BMP280;63796;53.136;14.882;2022-12-31T11:40:50;100406.40;;;15.35
75211;BMP280;63796;53.136;14.882;2022-12-31T11:55:13;100402.91;;;15.36
75211;BMP280;63796;53.136;14.882;2022-12-31T11:57:38;100392.48;;;15.36
75211;BMP280;63796;53.136;14.882;2022-12-31T12:00:20;100391.45;;;15.45
75211;BMP280;63796;53.136;14.882;2022-12-31T12:02:51;100390.58;;;15.39
75211;BMP280;63796;53.136;14.882;2022-12-31T12:05:22;100390.84;;;15.44
75211;BMP280;63796;53.136;14.882;2022-12-31T12:07:50;100400.69;;;15.60
75211;BMP280;63796;53.136;14.882;2022-12-31T12:10:35;100403.88;;;15.72
75211;BMP280;63796;53.136;14.882;2022-12-31T12:12:59;100406.55;;;15.70
75211;BMP280;63796;53.136;14.882;2022-12-31T12:15:33;100399.95;;;15.75
75211;BMP280;63796;53.136;14.882;2022-12-31T12:18:08;100400.48;;;15.92
75211;BMP280;63796;53.136;14.882;2022-12-31T12:20:39;100404.76;;;15.94
75211;BMP280;63796;53.136;14.882;2022-12-31T12:23:16;100401.81;;;16.01
75211;BMP280;63796;53.136;14.882;2022-12-31T12:25:44;100399.16;;;16.09
75211;BMP280;63796;53.136;14.882;2022-12-31T12:28:21;100399.87;;;16.01
75211;BMP280;63796;53.136;14.882;2022-12-31T12:31:02;100386.09;;;15.99
75211;BMP280;63796;53.136;14.882;2022-12-31T12:33:42;100395.56;;;16.06
75211;BMP280;63796;53.136;14.882;2022-12-31T12:36:12;100390.75;;;16.04
75211;BMP280;63796;53.136;14.882;2022-12-31T12:38:41;100394.79;;;15.95
75211;BMP280;63796;53.136;14.882;2022-12-31T12:41:21;100398.70;;;15.95
75211;BMP280;63796;53.136;14.882;2022-12-31T12:44:03;100408.20;;;15.94
75211;BMP280;63796;53.136;14.882;2022-12-31T12:46:43;100403.84;;;15.89
75211;BMP280;63796;53.136;14.882;2022-12-31T12:49:28;100388.78;;;15.77
75211;BMP280;63796;53.136;14.882;2022-12-31T13:04:55;100386.66;;;15.28
75211;BMP280;63796;53.136;14.882;2022-12-31T13:10:20;100377.65;;;15.29
75211;BMP280;63796;53.136;14.882;2022-12-31T13:13:17;100367.44;;;15.28
75211;BMP280;63796;53.136;14.882;2022-12-31T13:27:16;100363.27;;;15.37
75211;BMP280;63796;53.136;14.882;2022-12-31T13:29:41;100389.87;;;15.36
75211;BMP280;63796;53.136;14.882;2022-12-31T13:32:17;100417.09;;;15.36
75211;BMP280;63796;53.136;14.882;2022-12-31T13:34:45;100438.91;;;15.33
75211;BMP280;63796;53.136;14.882;2022-12-31T13:37:27;100381.52;;;15.27
75211;BMP280;63796;53.136;14.882;2022-12-31T13:40:11;100453.45;;;15.17
75211;BMP280;63796;53.136;14.882;2022-12-31T13:42:44;100450.02;;;15.10
75211;BMP280;63796;53.136;14.882;2022-12-31T13:45:20;100434.02;;;15.07
75211;BMP280;63796;53.136;14.882;2022-12-31T13:47:59;100443.30;;;15.07
75211;BMP280;63796;53.136;14.882;2022-12-31T13:50:43;100451.18;;;15.06
75211;BMP280;63796;53.136;14.882;2022-12-31T13:53:39;100468.53;;;15.08
75211;BMP280;63796;53.136;14.882;2022-12-31T13:56:24;100458.11;;;15.07
75211;BMP280;63796;53.136;14.882;2022-12-31T14:08:22;100475.75;;;14.95
75211;BMP280;63796;53.136;14.882;2022-12-31T14:17:21;100473.94;;;14.92
75211;BMP280;63796;53.136;14.882;2022-12-31T14:22:32;100516.69;;;14.89
75211;BMP280;63796;53.136;14.882;2022-12-31T14:24:59;100554.50;;;14.84
75211;BMP280;63796;53.136;14.882;2022-12-31T14:27:34;100539.20;;;14.80
75211;BMP280;63796;53.136;14.882;2022-12-31T14:30:14;100517.54;;;14.76
75211;BMP280;63796;53.136;14.882;2022-12-31T14:38:53;100519.40;;;14.82
75211;BMP280;63796;53.136;14.882;2022-12-31T14:41:26;100521.25;;;14.81
75211;BMP280;63796;53.136;14.882;2022-12-31T14:44:31;100533.95;;;14.81
75211;BMP280;63796;53.136;14.882;2022-12-31T14:50:10;100543.18;;;14.71
75211;BMP280;63796;53.136;14.882;2022-12-31T14:52:54;100546.25;;;14.67
75211;BMP280;63796;53.136;14.882;2022-12-31T14:55:38;100539.72;;;14.63
75211;BMP280;63796;53.136;14.882;2022-12-31T15:03:44;100525.41;;;14.59
75211;BMP280;63796;53.136;14.882;2022-12-31T15:17:51;100558.86;;;14.45
75211;BMP280;63796;53.136;14.882;2022-12-31T15:23:23;100559.84;;;14.44
75211;BMP280;63796;53.136;14.882;2022-12-31T15:25:57;100554.30;;;14.45
75211;BMP280;63796;53.136;14.882;2022-12-31T15:28:37;100551.44;;;14.43
75211;BMP280;63796;53.136;14.882;2022-12-31T15:34:18;100557.09;;;14.40
75211;BMP280;63796;53.136;14.882;2022-12-31T15:36:37;100546.89;;;14.43
75211;BMP280;63796;53.136;14.882;2022-12-31T15:41:47;100563.19;;;14.46
75211;BMP280;63796;53.136;14.882;2022-12-31T15:44:48;100551.08;;;14.48
75211;BMP280;63796;53.136;14.882;2022-12-31T15:47:39;100561.20;;;14.52
75211;BMP280;63796;53.136;14.882;2022-12-31T15:50:14;100562.71;;;14.54
75211;BMP280;63796;53.136;14.882;2022-12-31T15:52:55;100555.80;;;14.56
75211;BMP280;63796;53.136;14.882;2022-12-31T15:55:29;100550.17;;;14.55
75211;BMP280;63796;53.136;14.882;2022-12-31T15:58:02;100570.43;;;14.52
75211;BMP280;63796;53.136;14.882;2022-12-31T16:03:22;100568.42;;;14.50
75211;BMP280;63796;53.136;14.882;2022-12-31T16:05:51;100573.03;;;14.53
75211;BMP280;63796;53.136;14.882;2022-12-31T16:08:21;100568.95;;;14.53
75211;BMP280;63796;53.136;14.882;2022-12-31T16:10:49;100567.52;;;14.56
75211;BMP280;63796;53.136;14.882;2022-12-31T16:13:22;100566.84;;;14.61
75211;BMP280;63796;53.136;14.882;2022-12-31T16:16:19;100568.62;;;14.65
75211;BMP280;63796;53.136;14.882;2022-12-31T16:18:42;100562.28;;;14.73
75211;BMP280;63796;53.136;14.882;2022-12-31T16:21:31;100578.89;;;14.77
75211;BMP280;63796;53.136;14.882;2022-12-31T16:26:57;100555.98;;;14.88
75211;BMP280;63796;53.136;14.882;2022-12-31T16:29:24;100541.72;;;14.87
75211;BMP280;63796;53.136;14.882;2022-12-31T16:31:52;100538.27;;;14.83
75211;BMP280;63796;53.136;14.882;2022-12-31T16:34:23;100539.29;;;14.78
75211;BMP280;63796;53.136;14.882;2022-12-31T16:37:00;100540.96;;;14.69
75211;BMP280;63796;53.136;14.882;2022-12-31T16:39:36;100545.19;;;14.61
75211;BMP280;63796;53.136;14.882;2022-12-31T16:42:20;100535.23;;;14.58
75211;BMP280;63796;53.136;14.882;2022-12-31T16:44:49;100535.26;;;14.57
75211;BMP280;63796;53.136;14.882;2022-12-31T16:47:21;100528.21;;;14.54
75211;BMP280;63796;53.136;14.882;2022-12-31T16:50:12;100538.52;;;14.53
75211;BMP280;63796;53.136;14.882;2022-12-31T16:52:42;100549.68;;;14.47
75211;BMP280;63796;53.136;14.882;2022-12-31T16:55:16;100551.02;;;14.41
75211;BMP280;63796;53.136;14.882;2022-12-31T16:57:51;100545.95;;;14.34
75211;BMP280;63796;53.136;14.882;2022-12-31T17:00:23;100552.33;;;14.29
75211;BMP280;63796;53.136;14.882;2022-12-31T17:03:20;100554.39;;;14.26
75211;BMP280;63796;53.136;14.882;2022-12-31T17:14:05;100536.13;;;14.18
75211;BMP280;63796;53.136;14.882;2022-12-31T17:16:28;100546.57;;;14.22
75211;BMP280;63796;53.136;14.882;2022-12-31T17:18:55;100551.89;;;14.23
75211;BMP280;63796;53.136;14.882;2022-12-31T17:21:26;100563.39;;;14.29
75211;BMP280;63796;53.136;14.882;2022-12-31T17:24:03;100548.62;;;14.32
75211;BMP280;63796;53.136;14.882;2022-12-31T17:26:36;100548.54;;;14.38
75211;BMP280;63796;53.136;14.882;2022-12-31T17:29:05;100554.60;;;14.41
75211;BMP280;63796;53.136;14.882;2022-12-31T17:31:40;100543.15;;;14.43
75211;BMP280;63796;53.136;14.882;2022-12-31T17:39:49;100546.38;;;14.56
75211;BMP280;63796;53.136;14.882;2022-12-31T17:42:39;100551.59;;;14.64
75211;BMP280;63796;53.136;14.882;2022-12-31T17:45:19;100540.92;;;14.78
75211;BMP280;63796;53.136;14.882;2022-12-31T17:47:45;100534.72;;;14.94
75211;BMP280;63796;53.136;14.882;2022-12-31T17:50:23;100531.25;;;15.07
75211;BMP280;63796;53.136;14.882;2022-12-31T17:53:00;100542.52;;;15.18
75211;BMP280;63796;53.136;14.882;2022-12-31T17:55:28;100538.72;;;15.27
75211;BMP280;63796;53.136;14.882;2022-12-31T17:57:57;100529.41;;;15.35
75211;BMP280;63796;53.136;14.882;2022-12-31T18:00:26;100534.84;;;15.45
75211;BMP280;63796;53.136;14.882;2022-12-31T18:02:55;100525.91;;;15.52
75211;BMP280;63796;53.136;14.882;2022-12-31T18:05:23;100541.28;;;15.58
75211;BMP280;63796;53.136;14.882;2022-12-31T18:07:51;100545.64;;;15.66
75211;BMP280;63796;53.136;14.882;2022-12-31T18:10:21;100537.02;;;15.70
75211;BMP280;63796;53.136;14.882;2022-12-31T18:12:49;100541.62;;;15.72
75211;BMP280;63796;53.136;14.882;2022-12-31T18:15:20;100535.19;;;15.74
75211;BMP280;63796;53.136;14.882;2022-12-31T18:17:48;100536.49;;;15.74
75211;BMP280;63796;53.136;14.882;2022-12-31T18:20:15;100539.41;;;15.74
75211;BMP280;63796;53.136;14.882;2022-12-31T18:22:43;100541.29;;;15.72
75211;BMP280;63796;53.136;14.882;2022-12-31T18:25:18;100549.05;;;15.74
75211;BMP280;63796;53.136;14.882;2022-12-31T18:27:46;100535.19;;;15.74
75211;BMP280;63796;53.136;14.882;2022-12-31T18:30:13;100529.48;;;15.74
75211;BMP280;63796;53.136;14.882;2022-12-31T18:32:44;100528.58;;;15.76
75211;BMP280;63796;53.136;14.882;2022-12-31T18:35:18;100569.03;;;15.79
75211;BMP280;63796;53.136;14.882;2022-12-31T18:37:45;100541.05;;;15.85
75211;BMP280;63796;53.136;14.882;2022-12-31T18:40:13;100535.87;;;15.91
75211;BMP280;63796;53.136;14.882;2022-12-31T18:42:42;100542.14;;;15.93
75211;BMP280;63796;53.136;14.882;2022-12-31T18:45:18;100542.23;;;15.98
75211;BMP280;63796;53.136;14.882;2022-12-31T18:47:45;100532.32;;;16.04
75211;BMP280;63796;53.136;14.882;2022-12-31T18:50:14;100548.52;;;16.10
75211;BMP280;63796;53.136;14.882;2022-12-31T18:52:42;100538.42;;;16.17
75211;BMP280;63796;53.136;14.882;2022-12-31T18:55:37;100537.13;;;16.20
75211;BMP280;63796;53.136;14.882;2022-12-31T18:58:06;100531.56;;;16.17